createdAt,value
2017-10-05T00:01:16.060Z,71.10
2017-10-05T00:03:43.699Z,72.00
2017-10-05T00:06:11.375Z,71.50
2017-10-05T00:08:40.132Z,71.80
2017-10-05T00:11:07.728Z,71.90
2017-10-05T00:13:35.350Z,72.60
2017-10-05T00:16:04.106Z,73.20
2017-10-05T00:18:31.720Z,72.50
2017-10-05T00:20:59.330Z,72.70
2017-10-05T00:23:26.944Z,73.50
2017-10-05T00:25:54.565Z,73.10
2017-10-05T00:28:23.207Z,73.20
2017-10-05T00:30:50.831Z,73.10
2017-10-05T00:33:18.457Z,72.30
2017-10-05T00:35:46.079Z,72.60
2017-10-05T00:38:13.681Z,72.90
2017-10-05T00:40:41.686Z,72.30
2017-10-05T00:43:10.040Z,72.60
2017-10-05T00:45:37.711Z,72.60
2017-10-05T00:48:05.301Z,72.70
2017-10-05T00:50:32.934Z,73.10
2017-10-05T00:53:00.533Z,72.10
2017-10-05T00:55:29.242Z,72.70
2017-10-05T00:57:57.568Z,73.00
2017-10-05T01:00:25.186Z,72.50
2017-10-05T01:02:52.776Z,72.60
2017-10-05T01:05:20.410Z,72.00
2017-10-05T01:07:48.000Z,72.00
2017-10-05T01:10:15.643Z,72.80
2017-10-05T01:12:43.248Z,72.30
2017-10-05T01:15:11.610Z,72.80
2017-10-05T01:17:39.701Z,72.80
2017-10-05T01:20:07.310Z,72.50
2017-10-05T01:22:34.956Z,72.70
2017-10-05T01:25:02.846Z,72.80
2017-10-05T01:27:31.697Z,72.60
2017-10-05T01:29:59.284Z,72.50
2017-10-05T01:32:26.904Z,72.90
2017-10-05T01:34:54.498Z,73.10
2017-10-05T01:37:22.120Z,73.40
2017-10-05T01:39:50.101Z,73.00
2017-10-05T01:42:17.714Z,72.80
2017-10-05T01:44:45.319Z,72.80
2017-10-05T01:47:12.979Z,72.60
2017-10-05T01:49:40.581Z,72.70
2017-10-05T01:52:08.741Z,72.70
2017-10-05T01:54:36.336Z,72.70
2017-10-05T01:57:03.961Z,72.70
2017-10-05T01:59:31.574Z,72.50
2017-10-05T02:01:59.962Z,72.80
2017-10-05T02:04:28.336Z,73.20
2017-10-05T02:06:56.757Z,73.60
2017-10-05T02:09:24.370Z,73.60
2017-10-05T02:11:52.032Z,73.40
2017-10-05T02:14:20.414Z,73.60
2017-10-05T02:16:48.790Z,74.00
2017-10-05T02:19:17.181Z,73.70
2017-10-05T02:21:45.568Z,73.60
2017-10-05T02:24:13.164Z,73.60
2017-10-05T02:26:40.792Z,74.30
2017-10-05T02:29:08.395Z,74.90
2017-10-05T02:31:36.045Z,75.70
2017-10-05T02:34:03.647Z,76.20
2017-10-05T02:36:32.060Z,76.70
2017-10-05T02:38:59.671Z,76.70
2017-10-05T02:41:27.281Z,76.70
2017-10-05T02:43:54.905Z,77.20
2017-10-05T02:46:22.491Z,77.90
2017-10-05T02:48:50.125Z,78.00
2017-10-05T02:51:17.722Z,77.80
2017-10-05T02:53:45.352Z,78.20
2017-10-05T02:56:12.963Z,78.00
2017-10-05T02:58:40.578Z,78.50
2017-10-05T03:01:08.197Z,78.60
2017-10-05T03:03:35.825Z,78.50
2017-10-05T03:06:03.429Z,78.80
2017-10-05T03:08:31.054Z,78.70
2017-10-05T03:10:58.697Z,78.70
2017-10-05T03:13:27.087Z,79.10
2017-10-05T03:15:54.679Z,79.10
2017-10-05T03:18:22.299Z,79.10
2017-10-05T03:20:50.652Z,79.20
2017-10-05T03:23:18.319Z,79.20
2017-10-05T03:25:46.688Z,79.50
2017-10-05T03:28:14.286Z,79.50
2017-10-05T03:30:41.920Z,79.90
2017-10-05T03:33:09.523Z,79.70
2017-10-05T03:35:37.163Z,80.40
2017-10-05T03:38:05.550Z,80.40
2017-10-05T03:40:33.170Z,80.40
2017-10-05T03:43:00.769Z,80.90
2017-10-05T03:45:28.401Z,80.70
2017-10-05T03:47:55.997Z,80.90
2017-10-05T03:50:23.644Z,80.20
2017-10-05T03:52:51.241Z,80.40
2017-10-05T03:55:18.877Z,81.30
2017-10-05T03:57:46.486Z,81.10
2017-10-05T04:00:14.150Z,81.30
2017-10-05T04:02:41.755Z,80.90
2017-10-05T04:05:10.605Z,81.20
2017-10-05T04:07:38.201Z,81.60
2017-10-05T04:10:05.825Z,81.10
2017-10-05T04:12:33.437Z,81.80
2017-10-05T04:15:01.101Z,81.50
2017-10-05T04:17:29.569Z,82.10
2017-10-05T04:19:57.184Z,81.90
2017-10-05T04:22:24.806Z,82.50
2017-10-05T04:24:52.409Z,84.10
2017-10-05T04:27:20.048Z,83.70
2017-10-05T04:29:47.654Z,83.80
2017-10-05T04:32:16.044Z,83.70
2017-10-05T04:34:44.399Z,82.70
2017-10-05T04:37:12.037Z,82.70
2017-10-05T04:39:39.660Z,83.20
2017-10-05T04:42:07.280Z,82.90
2017-10-05T04:44:34.886Z,83.10
2017-10-05T04:47:02.778Z,83.00
2017-10-05T04:49:30.378Z,83.80
2017-10-05T04:51:58.777Z,83.60
2017-10-05T04:54:28.060Z,83.20
2017-10-05T04:56:55.693Z,83.20
2017-10-05T04:59:23.297Z,83.00
2017-10-05T05:01:51.703Z,84.40
2017-10-05T05:04:19.326Z,84.40
2017-10-05T05:06:46.926Z,83.90
2017-10-05T05:09:14.551Z,83.80
2017-10-05T05:11:42.904Z,85.00
2017-10-05T05:14:10.516Z,84.50
2017-10-05T05:16:38.124Z,83.70
2017-10-05T05:19:05.743Z,84.10
2017-10-05T05:21:33.333Z,83.40
2017-10-05T05:24:00.957Z,82.70
2017-10-05T05:26:29.660Z,83.00
2017-10-05T05:28:57.311Z,83.00
2017-10-05T05:31:25.707Z,83.20
2017-10-05T05:33:53.339Z,83.20
2017-10-05T05:36:21.705Z,83.30
2017-10-05T05:38:49.322Z,83.20
2017-10-05T05:41:16.907Z,83.40
2017-10-05T05:43:44.531Z,83.70
2017-10-05T05:46:12.152Z,83.80
2017-10-05T05:48:39.761Z,83.80
2017-10-05T05:51:07.406Z,83.80
2017-10-05T05:53:35.044Z,83.60
2017-10-05T05:56:03.427Z,83.30
2017-10-05T05:58:31.797Z,83.00
2017-10-05T06:00:59.467Z,83.00
2017-10-05T06:03:27.839Z,83.90
2017-10-05T06:05:55.468Z,83.90
2017-10-05T06:08:23.065Z,82.70
2017-10-05T06:10:51.453Z,83.20
2017-10-05T06:13:19.823Z,82.60
2017-10-05T06:15:48.911Z,82.30
2017-10-05T06:18:17.322Z,82.00
2017-10-05T06:20:44.952Z,81.90
2017-10-05T06:23:12.563Z,82.60
2017-10-05T06:25:40.185Z,82.80
2017-10-05T06:28:08.563Z,82.50
2017-10-05T06:30:36.940Z,81.80
2017-10-05T06:33:05.671Z,81.90
2017-10-05T06:35:33.296Z,81.90
2017-10-05T06:38:02.585Z,82.30
2017-10-05T06:40:31.005Z,83.20
2017-10-05T06:42:58.613Z,83.10
2017-10-05T06:45:26.244Z,82.30
2017-10-05T06:47:53.837Z,81.70
2017-10-05T06:50:21.536Z,82.80
2017-10-05T06:52:50.004Z,82.60
2017-10-05T06:55:18.373Z,82.90
2017-10-05T06:57:46.747Z,82.70
2017-10-05T07:00:15.112Z,82.80
2017-10-05T07:02:42.732Z,82.80
2017-10-05T07:05:10.353Z,82.00
2017-10-05T07:07:38.025Z,82.50
2017-10-05T07:10:05.636Z,83.40
2017-10-05T07:12:33.255Z,83.40
2017-10-05T07:15:00.908Z,83.70
2017-10-05T07:17:29.306Z,83.90
2017-10-05T07:19:56.897Z,83.90
2017-10-05T07:22:24.513Z,84.80
2017-10-05T07:24:52.103Z,84.00
2017-10-05T07:27:19.738Z,84.90
2017-10-05T07:29:47.340Z,85.90
2017-10-05T07:32:14.988Z,85.90
2017-10-05T07:34:42.584Z,85.50
2017-10-05T07:37:10.225Z,85.40
2017-10-05T07:39:37.855Z,84.60
2017-10-05T07:42:05.486Z,85.50
2017-10-05T07:44:33.870Z,85.60
2017-10-05T07:47:02.776Z,85.10
2017-10-05T07:49:31.718Z,85.30
2017-10-05T07:51:59.319Z,85.30
2017-10-05T07:54:27.695Z,85.10
2017-10-05T07:56:55.308Z,85.10
2017-10-05T07:59:22.952Z,85.20
2017-10-05T08:01:52.653Z,85.60
2017-10-05T08:04:20.364Z,85.60
2017-10-05T08:06:47.952Z,85.30
2017-10-05T08:09:15.578Z,85.70
2017-10-05T08:11:43.163Z,85.80
2017-10-05T08:14:11.549Z,86.20
2017-10-05T08:16:39.913Z,86.30
2017-10-05T08:19:08.303Z,85.20
2017-10-05T08:21:35.921Z,85.90
2017-10-05T08:24:03.536Z,85.20
2017-10-05T08:26:31.144Z,85.30
2017-10-05T08:28:58.751Z,86.90
2017-10-05T08:31:26.339Z,86.70
2017-10-05T08:33:53.972Z,87.10
2017-10-05T08:36:22.337Z,87.20
2017-10-05T08:38:50.735Z,87.70
2017-10-05T08:41:18.330Z,87.70
2017-10-05T08:43:45.953Z,88.00
2017-10-05T08:46:13.571Z,87.40
2017-10-05T08:48:41.198Z,87.90
2017-10-05T08:51:08.809Z,87.60
2017-10-05T08:53:36.432Z,88.40
2017-10-05T08:56:05.180Z,88.90
2017-10-05T08:58:32.926Z,89.30
2017-10-05T09:01:00.531Z,89.10
2017-10-05T09:03:28.156Z,89.10
2017-10-05T09:05:56.525Z,89.20
2017-10-05T09:08:24.153Z,89.10
2017-10-05T09:10:52.571Z,88.70
2017-10-05T09:13:20.189Z,89.00
2017-10-05T09:15:48.348Z,89.10
2017-10-05T09:18:15.949Z,88.50
2017-10-05T09:20:43.585Z,88.40
2017-10-05T09:23:11.769Z,88.50
2017-10-05T09:25:39.547Z,88.40
2017-10-05T09:28:07.177Z,89.20
2017-10-05T09:30:34.804Z,89.60
2017-10-05T09:33:03.171Z,88.90
2017-10-05T09:35:30.824Z,88.80
2017-10-05T09:37:58.412Z,88.90
2017-10-05T09:40:27.101Z,89.00
2017-10-05T09:42:54.693Z,89.00
2017-10-05T09:45:22.320Z,88.20
2017-10-05T09:47:49.924Z,88.70
2017-10-05T09:50:17.556Z,88.30
2017-10-05T09:52:45.145Z,88.40
2017-10-05T09:55:12.777Z,86.80
2017-10-05T09:57:40.649Z,87.90
2017-10-05T10:00:08.408Z,87.30
2017-10-05T10:02:36.009Z,87.00
2017-10-05T10:05:03.608Z,88.20
2017-10-05T10:07:31.992Z,88.80
2017-10-05T10:09:59.595Z,88.80
2017-10-05T10:12:27.219Z,88.00
2017-10-05T10:14:54.822Z,88.10
2017-10-05T10:17:22.450Z,87.20
2017-10-05T10:19:50.056Z,87.80
2017-10-05T10:22:17.679Z,87.60
2017-10-05T10:24:45.290Z,88.50
2017-10-05T10:27:12.918Z,87.40
2017-10-05T10:29:40.507Z,87.30
2017-10-05T10:32:08.161Z,87.60
2017-10-05T10:34:35.756Z,86.20
2017-10-05T10:37:03.362Z,86.40
2017-10-05T10:39:30.967Z,85.20
2017-10-05T10:41:59.355Z,85.10
2017-10-05T10:44:27.944Z,85.10
2017-10-05T10:46:55.591Z,84.60
2017-10-05T10:49:23.231Z,83.80
2017-10-05T10:51:50.905Z,85.10
2017-10-05T10:54:19.263Z,83.90
2017-10-05T10:56:47.804Z,83.80
2017-10-05T10:59:15.395Z,83.70
2017-10-05T11:01:43.015Z,82.00
2017-10-05T11:04:10.616Z,80.70
2017-10-05T11:06:38.250Z,80.60
2017-10-05T11:09:05.912Z,80.80
2017-10-05T11:11:33.874Z,80.60
2017-10-05T11:14:01.485Z,81.70
2017-10-05T11:16:29.072Z,80.20
2017-10-05T11:18:57.476Z,79.20
2017-10-05T11:21:25.213Z,79.90
2017-10-05T11:23:53.609Z,78.30
2017-10-05T11:26:21.219Z,78.90
2017-10-05T11:28:48.836Z,77.30
2017-10-05T11:31:16.435Z,76.50
2017-10-05T11:33:44.058Z,77.60
2017-10-05T11:36:12.244Z,76.40
2017-10-05T11:38:40.301Z,74.20
2017-10-05T11:41:08.002Z,73.10
2017-10-05T11:43:36.539Z,73.60
2017-10-05T11:46:04.158Z,73.60
2017-10-05T11:48:31.779Z,72.70
2017-10-05T11:50:59.385Z,71.90
2017-10-05T11:53:27.030Z,72.60
2017-10-05T11:55:54.625Z,71.40
2017-10-05T11:58:23.014Z,74.50
2017-10-05T12:00:51.437Z,76.50
2017-10-05T12:03:19.102Z,76.40
2017-10-05T12:05:46.707Z,75.50
2017-10-05T12:08:15.283Z,74.40
2017-10-05T12:10:42.934Z,74.20
2017-10-05T12:13:11.297Z,74.60
2017-10-05T12:15:38.922Z,74.90
2017-10-05T12:18:06.773Z,75.00
2017-10-05T12:20:34.378Z,74.10
2017-10-05T12:23:02.201Z,73.60
2017-10-05T12:25:29.994Z,73.20
2017-10-05T12:27:57.607Z,73.10
2017-10-05T12:30:25.987Z,73.80
2017-10-05T12:32:54.354Z,74.20
2017-10-05T12:35:22.037Z,74.20
2017-10-05T12:37:50.409Z,75.00
2017-10-05T12:40:20.501Z,73.70
2017-10-05T12:42:48.144Z,73.60
2017-10-05T12:45:15.846Z,75.20
2017-10-05T12:47:44.226Z,75.40
2017-10-05T12:50:11.883Z,75.30
2017-10-05T12:52:39.500Z,75.70
2017-10-05T12:55:07.137Z,75.60
2017-10-05T12:57:34.737Z,73.60
2017-10-05T13:00:03.567Z,72.80
2017-10-05T13:02:31.921Z,73.80
2017-10-05T13:04:59.687Z,73.80
2017-10-05T13:07:27.295Z,72.50
2017-10-05T13:09:54.906Z,72.90
2017-10-05T13:12:22.528Z,71.70
2017-10-05T13:14:50.116Z,71.60
2017-10-05T13:17:17.759Z,70.90
2017-10-05T13:19:45.524Z,71.10
2017-10-05T13:22:13.172Z,72.60
2017-10-05T13:24:40.771Z,72.60
2017-10-05T13:27:08.425Z,74.40
2017-10-05T13:29:36.046Z,75.60
2017-10-05T13:32:03.778Z,75.70
2017-10-05T13:34:31.376Z,77.40
2017-10-05T13:36:58.991Z,77.20
2017-10-05T13:39:26.598Z,77.40
2017-10-05T13:41:54.245Z,78.40
2017-10-05T13:44:21.848Z,79.40
2017-10-05T13:46:49.459Z,78.00
2017-10-05T13:49:17.071Z,79.00
2017-10-05T13:51:44.691Z,79.00
2017-10-05T13:54:12.285Z,79.80
2017-10-05T13:56:39.905Z,80.70
2017-10-05T13:59:07.499Z,81.90
2017-10-05T14:01:35.129Z,82.90
2017-10-05T14:04:02.798Z,83.40
2017-10-05T14:06:30.442Z,83.00
2017-10-05T14:08:58.810Z,83.20
2017-10-05T14:11:27.169Z,83.30
2017-10-05T14:13:54.793Z,83.20
2017-10-05T14:16:22.398Z,82.30
2017-10-05T14:18:50.023Z,81.90
2017-10-05T14:21:17.651Z,81.80
2017-10-05T14:23:45.679Z,83.00
2017-10-05T14:26:13.273Z,83.00
2017-10-05T14:28:41.696Z,81.50
2017-10-05T14:31:09.320Z,81.50
2017-10-05T14:33:36.945Z,82.20
2017-10-05T14:36:04.546Z,81.90
2017-10-05T14:38:32.174Z,81.20
2017-10-05T14:40:59.784Z,80.60
2017-10-05T14:43:27.425Z,81.00
2017-10-05T14:45:55.789Z,79.50
2017-10-05T14:48:23.794Z,79.60
2017-10-05T14:50:51.399Z,79.10
2017-10-05T14:53:19.040Z,80.00
2017-10-05T14:55:46.680Z,79.30
2017-10-05T14:58:14.281Z,79.00
2017-10-05T15:00:41.909Z,78.20
2017-10-05T15:03:09.809Z,77.40
2017-10-05T15:05:37.449Z,78.20
2017-10-05T15:08:05.050Z,77.80
2017-10-05T15:10:33.446Z,78.90
2017-10-05T15:13:01.845Z,78.00
2017-10-05T15:15:29.480Z,77.90
2017-10-05T15:17:57.838Z,77.40
2017-10-05T15:20:26.246Z,77.60
2017-10-05T15:22:54.602Z,77.40
2017-10-05T15:25:22.224Z,77.30
2017-10-05T15:27:49.815Z,77.60
2017-10-05T15:30:17.446Z,77.20
2017-10-05T15:32:45.036Z,77.60
2017-10-05T15:35:12.689Z,77.50
2017-10-05T15:37:41.801Z,77.70
2017-10-05T15:40:09.458Z,77.00
2017-10-05T15:42:37.053Z,78.40
2017-10-05T15:45:04.872Z,78.80
2017-10-05T15:47:32.486Z,76.50
2017-10-05T15:50:00.105Z,76.80
2017-10-05T15:52:27.705Z,76.00
2017-10-05T15:54:55.319Z,76.10
2017-10-05T15:57:23.963Z,76.00
2017-10-05T15:59:51.708Z,76.30
2017-10-05T16:02:19.303Z,76.50
2017-10-05T16:04:46.963Z,75.90
2017-10-05T16:07:14.564Z,76.00
2017-10-05T16:09:42.944Z,77.10
2017-10-05T16:12:10.566Z,77.10
2017-10-05T16:14:38.168Z,77.80
2017-10-05T16:17:06.656Z,78.80
2017-10-05T16:19:39.945Z,77.70
2017-10-05T16:22:08.340Z,77.70
2017-10-05T16:24:35.951Z,77.70
2017-10-05T16:27:03.560Z,77.40
2017-10-05T16:29:31.168Z,77.70
2017-10-05T16:31:58.781Z,77.30
2017-10-05T16:34:26.395Z,77.90
2017-10-05T16:36:54.043Z,77.60
2017-10-05T16:39:21.652Z,78.20
2017-10-05T16:41:50.049Z,77.20
2017-10-05T16:44:17.661Z,77.10
2017-10-05T16:46:45.299Z,77.10
2017-10-05T16:49:12.892Z,76.30
2017-10-05T16:51:40.500Z,75.00
2017-10-05T16:54:08.127Z,75.50
2017-10-05T16:56:35.776Z,76.10
2017-10-05T16:59:04.752Z,76.20
2017-10-05T17:01:32.356Z,76.20
2017-10-05T17:04:00.760Z,76.70
2017-10-05T17:06:28.354Z,76.70
2017-10-05T17:08:55.991Z,77.30
2017-10-05T17:11:23.588Z,77.10
2017-10-05T17:13:51.221Z,77.10
2017-10-05T17:16:18.830Z,76.50
2017-10-05T17:18:47.225Z,77.30
2017-10-05T17:21:14.838Z,77.20
2017-10-05T17:23:42.457Z,77.70
2017-10-05T17:26:10.056Z,77.60
2017-10-05T17:28:37.668Z,78.00
2017-10-05T17:31:05.439Z,78.50
2017-10-05T17:33:33.089Z,78.40
2017-10-05T17:36:01.452Z,78.50
2017-10-05T17:38:29.089Z,78.50
2017-10-05T17:40:56.684Z,78.50
2017-10-05T17:43:25.085Z,77.80
2017-10-05T17:45:52.686Z,77.80
2017-10-05T17:48:20.333Z,77.30
2017-10-05T17:50:47.940Z,77.90
2017-10-05T17:53:16.375Z,77.10
2017-10-05T17:55:43.992Z,76.90
2017-10-05T17:58:12.510Z,76.80
2017-10-05T18:00:40.232Z,76.80
2017-10-05T18:03:08.016Z,76.50
2017-10-05T18:05:35.679Z,77.00
2017-10-05T18:08:04.587Z,77.10
2017-10-05T18:10:32.232Z,76.90
2017-10-05T18:13:00.224Z,77.20
2017-10-05T18:15:27.858Z,76.60
2017-10-05T18:17:55.468Z,76.60
2017-10-05T18:20:23.105Z,76.70
2017-10-05T18:22:50.709Z,77.10
2017-10-05T18:25:18.349Z,76.70
2017-10-05T18:27:45.989Z,75.80
2017-10-05T18:30:13.605Z,76.20
2017-10-05T18:32:42.050Z,76.10
2017-10-05T18:35:09.663Z,76.10
2017-10-05T18:37:37.273Z,75.80
2017-10-05T18:40:04.933Z,75.80
2017-10-05T18:42:32.525Z,75.70
2017-10-05T18:45:00.925Z,75.80
2017-10-05T18:47:28.528Z,75.70
2017-10-05T18:49:56.211Z,75.70
2017-10-05T18:52:23.822Z,76.30
2017-10-05T18:54:51.421Z,76.20
2017-10-05T18:57:19.049Z,75.30
2017-10-05T18:59:46.702Z,75.80
2017-10-05T19:02:14.350Z,75.10
2017-10-05T19:04:41.966Z,75.20
2017-10-05T19:07:10.080Z,75.20
2017-10-05T19:09:38.544Z,75.70
2017-10-05T19:12:07.125Z,75.70
2017-10-05T19:14:34.878Z,76.10
2017-10-05T19:17:04.737Z,76.00
2017-10-05T19:19:34.319Z,76.20
2017-10-05T19:22:02.735Z,75.70
2017-10-05T19:24:30.363Z,75.50
2017-10-05T19:26:58.042Z,75.40
2017-10-05T19:29:25.649Z,75.70
2017-10-05T19:31:53.269Z,76.00
2017-10-05T19:34:21.651Z,75.60
2017-10-05T19:36:49.305Z,75.60
2017-10-05T19:39:16.944Z,75.20
2017-10-05T19:41:45.341Z,74.70
2017-10-05T19:44:12.957Z,74.70
2017-10-05T19:46:41.926Z,74.40
2017-10-05T19:49:09.521Z,74.40
2017-10-05T19:51:37.926Z,75.30
2017-10-05T19:54:06.291Z,75.20
2017-10-05T19:56:34.692Z,75.30
2017-10-05T19:59:02.745Z,75.00
2017-10-05T20:01:31.191Z,75.80
2017-10-05T20:03:58.857Z,75.80
2017-10-05T20:06:26.507Z,75.60
2017-10-05T20:08:54.222Z,75.80
2017-10-05T20:11:23.836Z,75.70
2017-10-05T20:13:52.370Z,75.70
2017-10-05T20:16:38.882Z,75.30
2017-10-05T20:19:27.412Z,74.70
2017-10-05T20:22:03.706Z,74.90
2017-10-05T20:24:32.250Z,75.40
2017-10-05T20:27:05.748Z,75.00
2017-10-05T20:29:39.889Z,75.80
2017-10-05T20:32:17.410Z,74.60
2017-10-05T20:34:46.225Z,75.00
2017-10-05T20:37:13.826Z,74.90
2017-10-05T20:39:41.864Z,74.30
2017-10-05T20:45:10.720Z,73.50
2017-10-05T20:47:39.374Z,74.00
2017-10-05T20:50:07.083Z,74.60
2017-10-05T20:52:35.526Z,75.10
2017-10-05T20:55:03.303Z,75.10
2017-10-05T20:57:30.916Z,75.60
2017-10-05T20:59:58.543Z,75.40
2017-10-05T21:02:26.140Z,75.80
2017-10-05T21:04:53.770Z,75.80
2017-10-05T21:07:21.399Z,74.80
2017-10-05T21:09:49.045Z,75.50
2017-10-05T21:12:16.641Z,74.30
2017-10-05T21:14:44.289Z,74.20
2017-10-05T21:17:11.919Z,74.90
2017-10-05T21:19:39.547Z,74.40
2017-10-05T21:22:07.904Z,74.30
2017-10-05T21:24:35.515Z,74.30
2017-10-05T21:27:03.103Z,74.70
2017-10-05T21:29:31.136Z,74.60
2017-10-05T21:31:59.342Z,74.70
2017-10-05T21:34:28.730Z,75.00
2017-10-05T21:36:57.120Z,74.60
2017-10-05T21:39:25.726Z,74.60
2017-10-05T21:41:53.365Z,74.60
2017-10-05T21:44:20.971Z,73.30
2017-10-05T21:46:49.369Z,74.50
2017-10-05T21:49:17.744Z,74.00
2017-10-05T21:51:46.124Z,74.10
2017-10-05T21:54:13.751Z,74.10
2017-10-05T21:56:42.148Z,74.50
2017-10-05T21:59:10.512Z,73.70
2017-10-05T22:01:38.147Z,73.60
2017-10-05T22:04:05.935Z,74.30
2017-10-05T22:06:33.567Z,74.30
2017-10-05T22:09:03.018Z,74.10
2017-10-05T22:11:30.637Z,74.10
2017-10-05T22:13:58.224Z,73.30
2017-10-05T22:16:25.843Z,73.40
2017-10-05T22:18:53.449Z,73.40
2017-10-05T22:21:21.877Z,73.30
2017-10-05T22:23:49.541Z,73.00
2017-10-05T22:26:17.171Z,73.50
2017-10-05T22:28:46.439Z,73.80
2017-10-05T22:31:14.047Z,73.60
2017-10-05T22:33:41.701Z,73.20
2017-10-05T22:36:10.061Z,73.30
2017-10-05T22:38:37.671Z,73.30
2017-10-05T22:41:05.278Z,73.60
2017-10-05T22:43:32.912Z,73.50
2017-10-05T22:46:00.521Z,73.60
2017-10-05T22:48:28.926Z,72.90
2017-10-05T22:50:56.524Z,72.90
2017-10-05T22:53:24.145Z,73.00
2017-10-05T22:55:51.807Z,72.70
2017-10-05T22:58:19.422Z,73.40
2017-10-05T23:00:47.033Z,73.10
2017-10-05T23:03:14.647Z,72.80
2017-10-05T23:05:42.244Z,72.80
2017-10-05T23:08:09.873Z,72.10
2017-10-05T23:10:38.249Z,72.40
2017-10-05T23:13:05.875Z,72.30
2017-10-05T23:15:33.469Z,72.70
2017-10-05T23:18:01.093Z,73.60
2017-10-05T23:20:28.710Z,71.80
2017-10-05T23:22:57.141Z,72.50
2017-10-05T23:25:24.741Z,72.50
2017-10-05T23:27:52.373Z,72.50
2017-10-05T23:30:20.009Z,72.80
2017-10-05T23:32:47.617Z,73.00
2017-10-05T23:35:16.025Z,72.50
2017-10-05T23:37:43.642Z,72.50
2017-10-05T23:40:11.260Z,72.10
2017-10-05T23:42:38.864Z,71.70
2017-10-05T23:45:06.479Z,72.00
2017-10-05T23:47:34.153Z,72.40
2017-10-05T23:50:01.803Z,72.50
2017-10-05T23:52:29.398Z,72.80
2017-10-05T23:54:57.012Z,72.10
2017-10-05T23:57:24.622Z,72.70
2017-10-05T23:59:52.260Z,72.60
